createdAt,value
2023-01-02T00:01:47.828Z,50.17
2023-01-02T00:04:15.924Z,49.06
2023-01-02T00:06:44.473Z,49.84
2023-01-02T00:09:12.955Z,49.99
2023-01-02T00:11:41.200Z,49.17
2023-01-02T00:14:10.865Z,50.53
2023-01-02T00:16:39.393Z,50.75
2023-01-02T00:19:08.834Z,50.86
2023-01-02T00:21:37.981Z,50.19
2023-01-02T00:24:06.607Z,51.14
2023-01-02T00:26:35.791Z,51.99
2023-01-02T00:29:03.939Z,51.20
2023-01-02T00:31:33.538Z,51.25
2023-01-02T00:34:01.991Z,51.50
2023-01-02T00:36:30.284Z,51.88
2023-01-02T00:38:59.015Z,50.99
2023-01-02T00:41:27.489Z,51.72
2023-01-02T00:43:56.175Z,52.73
2023-01-02T00:46:25.155Z,53.42
2023-01-02T00:48:54.676Z,53.46
2023-01-02T00:51:22.960Z,52.84
2023-01-02T00:53:51.013Z,53.96
2023-01-02T00:56:19.903Z,53.23
2023-01-02T00:58:48.633Z,52.31
2023-01-02T01:01:17.398Z,51.96
2023-01-02T01:03:46.632Z,51.68
2023-01-02T01:06:16.338Z,51.96
2023-01-02T01:08:44.967Z,52.93
2023-01-02T01:11:15.370Z,52.07
2023-01-02T01:13:43.498Z,52.17
2023-01-02T01:16:14.223Z,52.30
2023-01-02T01:18:43.277Z,52.23
2023-01-02T01:21:13.810Z,52.12
2023-01-02T01:23:44.031Z,51.24
2023-01-02T01:26:13.960Z,51.02
2023-01-02T01:28:42.346Z,50.57
2023-01-02T01:31:12.874Z,50.67
2023-01-02T01:33:42.950Z,52.02
2023-01-02T01:36:13.076Z,51.59
2023-01-02T01:38:43.896Z,51.46
2023-01-02T01:41:13.590Z,52.89
2023-01-02T01:43:44.868Z,52.43
2023-01-02T01:46:22.788Z,52.41
2023-01-02T01:48:55.792Z,51.62
2023-01-02T01:51:27.386Z,50.75
2023-01-02T01:54:04.559Z,50.75
2023-01-02T01:56:37.273Z,52.41
2023-01-02T01:59:06.570Z,51.81
2023-01-02T02:01:35.317Z,51.25
2023-01-02T02:04:04.167Z,50.78
2023-01-02T02:06:32.700Z,51.28
2023-01-02T02:09:07.788Z,52.19
2023-01-02T02:11:36.345Z,52.72
2023-01-02T02:14:04.446Z,54.26
2023-01-02T02:16:43.866Z,53.57
2023-01-02T02:19:35.985Z,52.75
2023-01-02T02:22:29.242Z,52.33
2023-01-02T02:25:16.695Z,53.56
2023-01-02T02:28:00.107Z,52.99
2023-01-02T02:30:35.957Z,52.75
2023-01-02T02:33:25.425Z,53.58
2023-01-02T02:36:04.403Z,53.90
2023-01-02T02:38:54.807Z,53.60
2023-01-02T02:41:33.299Z,53.82
2023-01-02T02:44:08.297Z,54.12
2023-01-02T02:46:48.353Z,54.43
2023-01-02T02:49:23.200Z,54.20
2023-01-02T02:51:57.091Z,53.36
2023-01-02T02:54:32.760Z,54.05
2023-01-02T02:57:02.826Z,54.96
2023-01-02T02:59:31.939Z,54.41
2023-01-02T03:02:11.920Z,53.60
2023-01-02T03:04:40.494Z,53.54
2023-01-02T03:07:21.991Z,54.33
2023-01-02T03:09:59.856Z,54.39
2023-01-02T03:12:36.865Z,54.67
2023-01-02T03:15:15.874Z,54.38
2023-01-02T03:17:59.817Z,55.74
2023-01-02T03:20:33.776Z,54.40
2023-01-02T03:23:07.798Z,53.67
2023-01-02T03:25:37.702Z,53.74
2023-01-02T03:28:08.940Z,55.72
2023-01-02T03:30:39.384Z,55.12
2023-01-02T03:33:14.135Z,57.21
2023-01-02T03:35:47.210Z,54.87
2023-01-02T03:38:21.857Z,55.32
2023-01-02T03:40:57.716Z,54.12
2023-01-02T03:43:30.673Z,55.77
2023-01-02T03:46:07.841Z,55.41
2023-01-02T03:48:42.801Z,55.52
2023-01-02T03:51:11.853Z,55.43
2023-01-02T03:53:41.300Z,58.06
2023-01-02T03:56:19.021Z,57.12
2023-01-02T03:58:52.546Z,54.57
2023-01-02T04:01:32.054Z,56.62
2023-01-02T04:04:09.440Z,57.82
2023-01-02T04:06:43.252Z,57.19
2023-01-02T04:09:14.822Z,58.88
2023-01-02T04:11:49.928Z,58.47
2023-01-02T04:14:21.909Z,58.21
2023-01-02T04:16:53.704Z,58.45
2023-01-02T04:19:26.983Z,58.04
2023-01-02T04:22:00.328Z,57.36
2023-01-02T04:24:32.931Z,56.07
2023-01-02T04:27:06.361Z,54.53
2023-01-02T04:29:34.913Z,56.15
2023-01-02T04:32:08.794Z,57.74
2023-01-02T04:34:40.452Z,56.79
2023-01-02T04:37:10.129Z,58.52
2023-01-02T04:39:39.351Z,58.54
2023-01-02T04:42:09.858Z,58.40
2023-01-02T04:44:37.991Z,59.79
2023-01-02T04:47:06.367Z,57.80
2023-01-02T04:49:34.727Z,57.78
2023-01-02T04:52:04.533Z,56.34
2023-01-02T04:54:32.719Z,55.22
2023-01-02T04:57:01.852Z,54.67
2023-01-02T04:59:30.210Z,55.44
2023-01-02T05:01:58.493Z,55.37
2023-01-02T05:04:26.811Z,56.50
2023-01-02T05:06:54.989Z,55.60
2023-01-02T05:09:24.516Z,54.94
2023-01-02T05:11:52.883Z,55.28
2023-01-02T05:14:21.805Z,56.29
2023-01-02T05:16:50.634Z,54.90
2023-01-02T05:19:18.726Z,55.27
2023-01-02T05:22:04.315Z,56.40
2023-01-02T05:24:34.043Z,57.28
2023-01-02T05:27:02.112Z,56.62
2023-01-02T05:29:32.594Z,56.47
2023-01-02T05:32:01.243Z,57.34
2023-01-02T05:34:29.459Z,56.46
2023-01-02T05:36:58.052Z,56.08
2023-01-02T05:39:26.460Z,56.39
2023-01-02T05:41:56.275Z,55.17
2023-01-02T05:44:24.633Z,55.44
2023-01-02T05:46:54.685Z,55.66
2023-01-02T05:49:23.561Z,55.99
2023-01-02T05:51:52.124Z,55.75
2023-01-02T05:54:20.488Z,53.98
2023-01-02T05:56:48.579Z,53.10
2023-01-02T05:59:19.819Z,53.12
2023-01-02T06:01:48.217Z,54.59
2023-01-02T06:04:19.805Z,54.16
2023-01-02T06:06:49.686Z,52.20
2023-01-02T06:09:18.443Z,50.97
2023-01-02T06:11:46.976Z,51.59
2023-01-02T06:14:15.336Z,52.62
2023-01-02T06:16:44.894Z,56.28
2023-01-02T06:19:13.285Z,57.59
2023-01-02T06:21:41.584Z,58.53
2023-01-02T06:24:10.358Z,59.00
2023-01-02T06:26:38.740Z,58.08
2023-01-02T06:29:07.123Z,58.59
2023-01-02T06:31:37.989Z,58.19
2023-01-02T06:34:11.269Z,58.35
2023-01-02T06:36:39.805Z,58.64
2023-01-02T06:39:08.203Z,59.03
2023-01-02T06:41:36.707Z,58.37
2023-01-02T06:44:05.092Z,58.64
2023-01-02T06:46:33.260Z,58.93
2023-01-02T06:49:01.496Z,57.75
2023-01-02T06:51:31.183Z,57.77
2023-01-02T06:53:59.513Z,58.20
2023-01-02T06:56:27.949Z,58.19
2023-01-02T06:58:56.901Z,57.56
2023-01-02T07:01:25.640Z,57.32
2023-01-02T07:03:55.984Z,57.42
2023-01-02T07:06:24.681Z,56.54
2023-01-02T07:08:54.568Z,56.16
2023-01-02T07:11:25.208Z,56.60
2023-01-02T07:13:55.808Z,56.82
2023-01-02T07:16:26.221Z,59.23
2023-01-02T07:18:55.539Z,60.75
2023-01-02T07:21:24.267Z,60.57
2023-01-02T07:23:52.941Z,59.66
2023-01-02T07:26:22.738Z,61.41
2023-01-02T07:28:50.915Z,60.76
2023-01-02T07:31:22.707Z,61.42
2023-01-02T07:33:51.559Z,61.58
2023-01-02T07:36:22.230Z,60.83
2023-01-02T07:38:52.016Z,62.00
2023-01-02T07:41:25.359Z,60.46
2023-01-02T07:43:56.072Z,59.21
2023-01-02T07:46:24.789Z,59.04
2023-01-02T07:48:53.666Z,57.77
2023-01-02T07:51:26.982Z,56.85
2023-01-02T07:53:57.082Z,56.39
2023-01-02T07:56:27.228Z,56.56
2023-01-02T07:58:55.705Z,56.26
2023-01-02T08:01:24.138Z,55.91
2023-01-02T08:03:52.649Z,56.64
2023-01-02T08:06:21.735Z,55.91
2023-01-02T08:08:49.969Z,57.15
2023-01-02T08:11:20.401Z,59.31
2023-01-02T08:13:50.713Z,60.27
2023-01-02T08:16:21.362Z,59.13
2023-01-02T08:18:51.587Z,60.44
2023-01-02T08:21:20.526Z,58.56
2023-01-02T08:23:49.343Z,57.87
2023-01-02T08:26:18.434Z,57.84
2023-01-02T08:28:47.142Z,58.33
2023-01-02T08:31:19.569Z,58.17
2023-01-02T08:33:50.077Z,57.78
2023-01-02T08:36:20.127Z,58.16
2023-01-02T08:38:48.765Z,59.24
2023-01-02T08:41:30.488Z,57.49
2023-01-02T08:43:59.238Z,60.05
2023-01-02T08:46:28.872Z,58.11
2023-01-02T08:48:57.471Z,57.40
2023-01-02T08:51:26.478Z,56.38
2023-01-02T08:53:54.850Z,56.99
2023-01-02T08:56:25.891Z,55.79
2023-01-02T08:58:55.788Z,58.20
2023-01-02T09:01:25.615Z,58.03
2023-01-02T09:03:55.953Z,56.92
2023-01-02T09:06:26.255Z,58.55
2023-01-02T09:08:56.882Z,57.85
2023-01-02T09:11:27.926Z,56.88
2023-01-02T09:13:57.360Z,55.38
2023-01-02T09:16:26.676Z,54.58
2023-01-02T09:18:57.072Z,53.47
2023-01-02T09:21:25.941Z,52.27
2023-01-02T09:23:54.756Z,53.42
2023-01-02T09:26:23.555Z,53.63
2023-01-02T09:28:52.300Z,53.33
2023-01-02T09:31:22.009Z,52.81
2023-01-02T09:33:50.524Z,52.11
2023-01-02T09:36:22.143Z,53.24
2023-01-02T09:38:53.892Z,51.83
2023-01-02T09:41:33.133Z,50.47
2023-01-02T09:44:06.453Z,50.49
2023-01-02T09:46:41.841Z,50.35
2023-01-02T09:49:14.731Z,52.72
2023-01-02T09:51:46.106Z,52.95
2023-01-02T09:54:20.197Z,51.88
2023-01-02T09:56:53.797Z,51.01
2023-01-02T09:59:28.951Z,50.59
2023-01-02T10:02:11.601Z,50.70
2023-01-02T10:04:55.300Z,51.18
2023-01-02T10:07:33.732Z,49.60
2023-01-02T10:10:07.594Z,49.71
2023-01-02T10:12:43.160Z,49.13
2023-01-02T10:15:17.849Z,49.64
2023-01-02T10:17:51.432Z,48.38
2023-01-02T10:20:27.807Z,47.16
2023-01-02T10:23:02.857Z,47.38
2023-01-02T10:25:37.507Z,48.56
2023-01-02T10:28:18.551Z,47.10
2023-01-02T10:30:52.800Z,48.18
2023-01-02T10:33:26.862Z,47.47
2023-01-02T10:35:59.199Z,47.70
2023-01-02T10:38:35.658Z,47.89
2023-01-02T10:41:04.473Z,47.34
2023-01-02T10:43:35.066Z,46.16
2023-01-02T10:46:04.481Z,44.69
2023-01-02T10:48:36.347Z,49.82
2023-01-02T10:51:08.741Z,50.28
2023-01-02T10:53:38.914Z,50.99
2023-01-02T10:56:16.758Z,50.58
2023-01-02T10:58:48.373Z,50.28
2023-01-02T11:01:19.110Z,51.46
2023-01-02T11:03:48.790Z,51.07
2023-01-02T11:06:35.188Z,50.95
2023-01-02T11:09:19.955Z,50.80
2023-01-02T11:11:53.273Z,51.11
2023-01-02T11:14:24.301Z,52.12
2023-01-02T11:16:52.936Z,52.70
2023-01-02T11:19:29.462Z,51.66
2023-01-02T11:21:59.154Z,51.80
2023-01-02T11:24:29.821Z,51.08
2023-01-02T11:27:02.945Z,52.84
2023-01-02T11:29:33.942Z,51.74
2023-01-02T11:32:03.790Z,51.42
2023-01-02T11:34:35.607Z,49.93
2023-01-02T11:37:07.694Z,50.84
2023-01-02T11:39:37.482Z,52.02
2023-01-02T11:42:35.207Z,51.33
2023-01-02T11:45:09.338Z,51.38
2023-01-02T11:47:41.418Z,51.62
2023-01-02T11:50:14.755Z,50.37
2023-01-02T11:52:49.551Z,49.64
2023-01-02T11:55:33.226Z,48.78
2023-01-02T11:58:07.704Z,50.01
2023-01-02T12:00:39.872Z,49.80
2023-01-02T12:03:18.649Z,51.82
2023-01-02T12:06:02.341Z,53.83
2023-01-02T12:08:44.759Z,54.07
2023-01-02T12:11:27.096Z,54.95
2023-01-02T12:14:09.101Z,56.44
2023-01-02T12:16:45.478Z,55.75
2023-01-02T12:19:45.123Z,55.39
2023-01-02T12:22:42.521Z,55.13
2023-01-02T12:25:37.274Z,54.20
2023-01-02T12:28:25.446Z,52.88
2023-01-02T12:31:14.518Z,52.88
2023-01-02T12:33:52.632Z,52.79
2023-01-02T12:36:57.716Z,51.93
2023-01-02T12:40:04.888Z,50.96
2023-01-02T12:42:45.210Z,51.30
2023-01-02T12:45:22.691Z,53.11
2023-01-02T12:48:05.993Z,52.56
2023-01-02T12:51:05.013Z,53.72
2023-01-02T12:54:18.607Z,52.74
2023-01-02T12:56:52.777Z,52.12
2023-01-02T12:59:45.779Z,51.15
2023-01-02T13:02:32.849Z,51.91
2023-01-02T13:05:07.727Z,52.17
2023-01-02T13:07:41.848Z,50.02
2023-01-02T13:10:16.930Z,50.30
2023-01-02T13:12:47.828Z,50.71
2023-01-02T13:15:21.853Z,50.19
2023-01-02T13:18:03.007Z,55.13
2023-01-02T13:20:42.744Z,54.59
2023-01-02T13:23:26.739Z,53.88
2023-01-02T13:25:59.821Z,53.85
2023-01-02T13:28:28.503Z,52.68
2023-01-02T13:31:35.443Z,53.41
2023-01-02T13:33:53.785Z,52.43
2023-01-02T13:36:26.685Z,54.78
2023-01-02T13:38:57.622Z,55.09
2023-01-02T13:41:28.619Z,55.82
2023-01-02T13:43:59.952Z,55.62
2023-01-02T13:47:01.961Z,57.22
2023-01-02T13:49:22.627Z,57.93
2023-01-02T13:51:50.942Z,58.97
2023-01-02T13:54:21.259Z,58.90
2023-01-02T13:57:18.825Z,59.58
2023-01-02T13:59:59.106Z,60.44
2023-01-02T14:02:28.370Z,58.68
2023-01-02T14:04:58.285Z,58.15
2023-01-02T14:07:50.051Z,57.59
2023-01-02T14:10:39.670Z,57.53
2023-01-02T14:13:20.243Z,57.05
2023-01-02T14:16:24.857Z,58.57
2023-01-02T14:19:15.683Z,58.46
2023-01-02T14:21:48.900Z,58.20
2023-01-02T14:24:30.177Z,58.22
2023-01-02T14:27:02.050Z,58.09
2023-01-02T14:29:32.574Z,59.46
2023-01-02T14:32:04.944Z,58.87
2023-01-02T14:34:35.264Z,58.26
2023-01-02T14:37:05.789Z,58.02
2023-01-02T14:39:37.048Z,57.83
2023-01-02T14:42:32.725Z,57.17
2023-01-02T14:45:07.237Z,58.22
2023-01-02T14:47:39.508Z,59.95
2023-01-02T14:50:15.462Z,59.31
2023-01-02T14:52:50.493Z,59.35
2023-01-02T14:55:23.204Z,59.71
2023-01-02T14:57:54.679Z,60.84
2023-01-02T15:00:32.762Z,62.26
2023-01-02T15:03:13.588Z,60.35
2023-01-02T15:05:48.813Z,60.61
2023-01-02T15:08:22.822Z,59.69
2023-01-02T15:11:20.425Z,60.51
2023-01-02T15:14:05.581Z,60.11
2023-01-02T15:16:43.229Z,57.89
2023-01-02T15:19:18.948Z,58.14
2023-01-02T15:21:48.159Z,58.92
2023-01-02T15:24:21.841Z,60.55
2023-01-02T15:26:50.597Z,59.93
2023-01-02T15:29:26.103Z,59.83
2023-01-02T15:31:56.732Z,59.19
2023-01-02T15:34:29.868Z,58.98
2023-01-02T15:37:02.223Z,62.01
2023-01-02T15:39:35.589Z,61.62
2023-01-02T15:42:11.848Z,59.82
2023-01-02T15:44:58.524Z,60.41
2023-01-02T15:47:28.397Z,60.73
2023-01-02T15:49:58.786Z,59.98
2023-01-02T15:52:32.020Z,60.75
2023-01-02T15:55:01.959Z,60.66
2023-01-02T15:57:32.706Z,61.74
2023-01-02T16:00:01.601Z,62.45
2023-01-02T16:02:43.370Z,61.75
2023-01-02T16:05:15.379Z,61.32
2023-01-02T16:07:49.762Z,62.48
2023-01-02T16:10:22.602Z,62.46
2023-01-02T16:12:53.690Z,62.56
2023-01-02T16:15:25.304Z,62.53
2023-01-02T16:17:55.564Z,61.88
2023-01-02T16:20:26.351Z,62.12
2023-01-02T16:22:58.869Z,63.74
2023-01-02T16:25:31.797Z,64.14
2023-01-02T16:28:03.109Z,62.62
2023-01-02T16:30:38.076Z,61.48
2023-01-02T16:33:22.708Z,63.22
2023-01-02T16:35:59.949Z,62.03
2023-01-02T16:38:29.446Z,63.65
2023-01-02T16:41:04.631Z,61.26
2023-01-02T16:43:41.212Z,60.69
2023-01-02T16:46:16.452Z,60.85
2023-01-02T16:48:45.299Z,61.58
2023-01-02T16:51:15.715Z,61.48
2023-01-02T16:53:45.905Z,61.51
2023-01-02T16:56:16.697Z,63.07
2023-01-02T16:58:44.838Z,63.10
2023-01-02T17:01:15.187Z,62.00
2023-01-02T17:03:45.394Z,63.19
2023-01-02T17:06:16.225Z,61.82
2023-01-02T17:08:44.961Z,63.57
2023-01-02T17:11:17.084Z,63.32
2023-01-02T17:13:45.713Z,63.24
2023-01-02T17:16:14.245Z,62.32
2023-01-02T17:18:42.448Z,62.00
2023-01-02T17:21:11.188Z,62.68
2023-01-02T17:23:39.795Z,61.87
2023-01-02T17:26:08.398Z,62.43
2023-01-02T17:28:38.115Z,61.26
2023-01-02T17:31:06.743Z,61.48
2023-01-02T17:33:35.178Z,60.79
2023-01-02T17:36:03.334Z,60.60
2023-01-02T17:38:31.755Z,61.31
2023-01-02T17:41:01.394Z,60.11
2023-01-02T17:43:29.777Z,59.58
2023-01-02T17:46:30.382Z,59.34
2023-01-02T17:48:54.515Z,59.71
2023-01-02T17:51:22.679Z,58.64
2023-01-02T17:53:53.210Z,58.56
2023-01-02T17:56:24.474Z,58.70
2023-01-02T17:58:52.937Z,58.30
2023-01-02T18:01:23.876Z,58.67
2023-01-02T18:03:52.690Z,58.41
2023-01-02T18:06:20.869Z,58.92
2023-01-02T18:08:50.539Z,58.88
2023-01-02T18:11:19.019Z,58.79
2023-01-02T18:13:50.611Z,58.87
2023-01-02T18:16:21.718Z,59.52
2023-01-02T18:18:53.418Z,59.93
2023-01-02T18:21:23.875Z,59.40
2023-01-02T18:23:58.228Z,59.14
2023-01-02T18:26:27.987Z,60.18
2023-01-02T18:29:02.946Z,59.51
2023-01-02T18:31:42.007Z,59.46
2023-01-02T18:34:46.336Z,58.79
2023-01-02T18:37:16.933Z,58.88
2023-01-02T18:39:45.538Z,57.74
2023-01-02T18:42:15.939Z,57.83
2023-01-02T18:44:45.102Z,57.83
2023-01-02T18:47:24.950Z,57.71
2023-01-02T18:49:57.797Z,57.54
2023-01-02T18:52:28.250Z,58.12
2023-01-02T18:55:00.786Z,57.81
2023-01-02T18:57:34.670Z,58.11
2023-01-02T19:00:18.930Z,58.33
2023-01-02T19:02:55.169Z,58.18
2023-01-02T19:05:28.530Z,57.94
2023-01-02T19:08:06.043Z,57.89
2023-01-02T19:10:39.033Z,57.71
2023-01-02T19:13:16.525Z,59.58
2023-01-02T19:15:46.457Z,59.04
2023-01-02T19:18:35.457Z,58.39
2023-01-02T19:21:14.696Z,59.25
2023-01-02T19:23:48.082Z,59.52
2023-01-02T19:26:27.593Z,58.65
2023-01-02T19:28:59.303Z,58.27
2023-01-02T19:31:34.792Z,58.23
2023-01-02T19:34:03.754Z,58.29
2023-01-02T19:36:39.954Z,58.49
2023-01-02T19:39:23.640Z,57.56
2023-01-02T19:42:09.452Z,57.79
2023-01-02T19:44:37.789Z,57.90
2023-01-02T19:47:06.697Z,57.56
2023-01-02T19:49:35.016Z,57.81
2023-01-02T19:52:05.172Z,58.37
2023-01-02T19:54:33.548Z,57.94
2023-01-02T19:57:01.698Z,58.67
2023-01-02T19:59:30.083Z,58.57
2023-01-02T20:01:58.682Z,60.17
2023-01-02T20:04:27.493Z,59.54
2023-01-02T20:06:55.991Z,58.75
2023-01-02T20:09:27.181Z,58.84
2023-01-02T20:12:13.660Z,58.95
2023-01-02T20:14:41.972Z,59.01
2023-01-02T20:17:10.969Z,60.47
2023-01-02T20:19:40.484Z,60.05
2023-01-02T20:22:09.424Z,59.22
2023-01-02T20:24:39.409Z,58.69
2023-01-02T20:27:07.930Z,59.51
2023-01-02T20:29:36.009Z,59.17
2023-01-02T20:32:04.582Z,59.30
2023-01-02T20:34:33.248Z,59.41
2023-01-02T20:37:01.502Z,59.57
2023-01-02T20:39:29.564Z,59.06
2023-01-02T20:41:59.279Z,59.11
2023-01-02T20:44:27.712Z,60.57
2023-01-02T20:46:56.516Z,59.51
2023-01-02T20:49:26.300Z,59.16
2023-01-02T20:51:55.968Z,59.30
2023-01-02T20:54:24.617Z,60.28
2023-01-02T20:56:53.058Z,60.51
2023-01-02T20:59:23.697Z,61.00
2023-01-02T21:01:52.009Z,61.48
2023-01-02T21:04:22.767Z,60.95
2023-01-02T21:06:57.395Z,60.70
2023-01-02T21:09:25.716Z,60.01
2023-01-02T21:11:54.154Z,59.58
2023-01-02T21:14:23.846Z,59.70
2023-01-02T21:16:52.026Z,58.76
2023-01-02T21:19:20.259Z,58.96
2023-01-02T21:21:48.866Z,58.54
2023-01-02T21:24:16.892Z,57.26
2023-01-02T21:26:45.020Z,57.31
2023-01-02T21:29:13.259Z,56.33
2023-01-02T21:31:43.501Z,56.65
2023-01-02T21:34:13.699Z,56.32
2023-01-02T21:36:41.797Z,57.10
2023-01-02T21:39:10.396Z,57.70
2023-01-02T21:41:56.444Z,60.01
2023-01-02T21:44:25.275Z,62.13
2023-01-02T21:46:55.408Z,63.09
2023-01-02T21:49:23.955Z,64.95
2023-01-02T21:51:53.395Z,65.42
2023-01-02T21:54:21.612Z,65.47
2023-01-02T21:56:50.095Z,66.55
2023-01-02T21:59:18.797Z,67.27
2023-01-02T22:01:47.326Z,66.91
2023-01-02T22:04:17.489Z,67.83
2023-01-02T22:07:29.477Z,67.67
2023-01-02T22:09:34.207Z,67.43
2023-01-02T22:12:02.404Z,67.75
2023-01-02T22:14:32.735Z,67.94
2023-01-02T22:17:02.700Z,67.77
2023-01-02T22:19:33.092Z,67.50
2023-01-02T22:22:03.166Z,68.07
2023-01-02T22:24:32.093Z,67.87
2023-01-02T22:27:03.861Z,68.76
2023-01-02T22:30:09.496Z,69.58
2023-01-02T22:32:23.278Z,68.60
2023-01-02T22:34:53.415Z,69.17
2023-01-02T22:37:22.899Z,69.23
2023-01-02T22:39:51.494Z,69.12
2023-01-02T22:45:32.090Z,69.21
2023-01-02T22:48:04.352Z,68.72
2023-01-02T22:50:41.770Z,68.38
2023-01-02T22:53:18.084Z,68.07
2023-01-02T22:55:46.531Z,67.02
2023-01-02T22:58:14.804Z,67.22
2023-01-02T23:00:43.316Z,67.70
2023-01-02T23:03:14.543Z,68.45
2023-01-02T23:05:44.643Z,68.95
2023-01-02T23:08:14.907Z,67.70
2023-01-02T23:10:43.509Z,66.98
2023-01-02T23:13:11.658Z,66.82
2023-01-02T23:16:00.959Z,66.93
2023-01-02T23:18:50.318Z,67.14
2023-01-02T23:21:24.793Z,67.18
2023-01-02T23:23:53.237Z,67.03
2023-01-02T23:26:22.526Z,67.87
2023-01-02T23:29:08.134Z,68.51
2023-01-02T23:31:38.372Z,67.94
2023-01-02T23:34:06.882Z,67.11
2023-01-02T23:36:37.301Z,66.42
2023-01-02T23:39:06.986Z,66.25
2023-01-02T23:41:35.725Z,66.87
2023-01-02T23:44:04.283Z,66.39
2023-01-02T23:46:32.564Z,66.31
2023-01-02T23:49:01.260Z,65.93
2023-01-02T23:51:30.434Z,67.85
2023-01-02T23:54:00.895Z,68.48
2023-01-02T23:56:31.855Z,67.83
2023-01-02T23:59:02.503Z,67.79
